sensor_id;sensor_type;location;lat;lon;timestamp;P1;durP1;ratioP1;P2;durP2;ratioP2
39792;SDS011;26080;42.264;24.536;2024-02-21T00:01:39;17.52;;;8.57;;
39792;SDS011;26080;42.264;24.536;2024-02-21T00:04:04;21.77;;;8.98;;
39792;SDS011;26080;42.264;24.536;2024-02-21T00:06:35;15.32;;;8.05;;
39792;SDS011;26080;42.264;24.536;2024-02-21T00:09:00;19.35;;;9.05;;
39792;SDS011;26080;42.264;24.536;2024-02-21T00:11:25;20.00;;;10.27;;
39792;SDS011;26080;42.264;24.536;2024-02-21T00:13:51;13.43;;;7.35;;
39792;SDS011;26080;42.264;24.536;2024-02-21T00:16:16;16.05;;;7.38;;
39792;SDS011;26080;42.264;24.536;2024-02-21T00:18:42;14.65;;;8.25;;
39792;SDS011;26080;42.264;24.536;2024-02-21T00:21:08;19.42;;;9.35;;
39792;SDS011;26080;42.264;24.536;2024-02-21T00:23:50;27.58;;;11.88;;
39792;SDS011;26080;42.264;24.536;2024-02-21T00:26:16;22.38;;;10.48;;
39792;SDS011;26080;42.264;24.536;2024-02-21T00:28:41;15.48;;;7.90;;
39792;SDS011;26080;42.264;24.536;2024-02-21T00:31:07;22.98;;;11.45;;
39792;SDS011;26080;42.264;24.536;2024-02-21T00:33:33;18.52;;;9.43;;
39792;SDS011;26080;42.264;24.536;2024-02-21T00:35:58;21.58;;;10.30;;
39792;SDS011;26080;42.264;24.536;2024-02-21T00:38:24;24.10;;;11.95;;
39792;SDS011;26080;42.264;24.536;2024-02-21T00:40:49;22.92;;;10.93;;
39792;SDS011;26080;42.264;24.536;2024-02-21T00:43:14;21.42;;;10.05;;
39792;SDS011;26080;42.264;24.536;2024-02-21T00:45:40;18.90;;;10.73;;
39792;SDS011;26080;42.264;24.536;2024-02-21T00:48:05;19.48;;;11.57;;
39792;SDS011;26080;42.264;24.536;2024-02-21T00:50:31;24.50;;;11.65;;
39792;SDS011;26080;42.264;24.536;2024-02-21T00:52:57;15.70;;;9.63;;
39792;SDS011;26080;42.264;24.536;2024-02-21T00:55:23;26.08;;;11.13;;
39792;SDS011;26080;42.264;24.536;2024-02-21T00:57:51;21.73;;;12.35;;
39792;SDS011;26080;42.264;24.536;2024-02-21T01:00:17;26.92;;;12.75;;
39792;SDS011;26080;42.264;24.536;2024-02-21T01:02:43;24.55;;;12.23;;
39792;SDS011;26080;42.264;24.536;2024-02-21T01:05:08;19.48;;;10.60;;
39792;SDS011;26080;42.264;24.536;2024-02-21T01:07:34;22.50;;;9.88;;
39792;SDS011;26080;42.264;24.536;2024-02-21T01:09:59;22.08;;;10.13;;
39792;SDS011;26080;42.264;24.536;2024-02-21T01:12:25;24.10;;;12.02;;
39792;SDS011;26080;42.264;24.536;2024-02-21T01:14:50;19.55;;;9.93;;
39792;SDS011;26080;42.264;24.536;2024-02-21T01:17:15;17.40;;;9.77;;
39792;SDS011;26080;42.264;24.536;2024-02-21T01:19:41;19.30;;;10.55;;
39792;SDS011;26080;42.264;24.536;2024-02-21T01:22:06;23.13;;;11.93;;
39792;SDS011;26080;42.264;24.536;2024-02-21T01:24:35;16.83;;;9.60;;
39792;SDS011;26080;42.264;24.536;2024-02-21T01:27:01;20.60;;;11.32;;
39792;SDS011;26080;42.264;24.536;2024-02-21T01:29:26;23.05;;;11.95;;
39792;SDS011;26080;42.264;24.536;2024-02-21T01:31:51;28.38;;;11.85;;
39792;SDS011;26080;42.264;24.536;2024-02-21T01:34:17;16.45;;;9.48;;
39792;SDS011;26080;42.264;24.536;2024-02-21T01:36:42;22.55;;;11.02;;
39792;SDS011;26080;42.264;24.536;2024-02-21T01:39:08;26.17;;;12.90;;
39792;SDS011;26080;42.264;24.536;2024-02-21T01:41:33;23.30;;;10.95;;
39792;SDS011;26080;42.264;24.536;2024-02-21T01:43:58;17.60;;;10.18;;
39792;SDS011;26080;42.264;24.536;2024-02-21T01:46:24;18.60;;;10.27;;
39792;SDS011;26080;42.264;24.536;2024-02-21T01:48:56;21.05;;;11.63;;
39792;SDS011;26080;42.264;24.536;2024-02-21T01:51:22;20.98;;;10.93;;
39792;SDS011;26080;42.264;24.536;2024-02-21T01:53:49;22.70;;;11.23;;
39792;SDS011;26080;42.264;24.536;2024-02-21T01:56:16;21.75;;;10.35;;
39792;SDS011;26080;42.264;24.536;2024-02-21T01:58:42;22.98;;;10.82;;
39792;SDS011;26080;42.264;24.536;2024-02-21T02:01:09;21.05;;;11.95;;
39792;SDS011;26080;42.264;24.536;2024-02-21T02:03:35;20.52;;;10.38;;
39792;SDS011;26080;42.264;24.536;2024-02-21T02:06:01;21.92;;;11.15;;
39792;SDS011;26080;42.264;24.536;2024-02-21T02:08:32;22.85;;;10.88;;
39792;SDS011;26080;42.264;24.536;2024-02-21T02:10:58;22.05;;;11.35;;
39792;SDS011;26080;42.264;24.536;2024-02-21T02:13:24;18.70;;;9.88;;
39792;SDS011;26080;42.264;24.536;2024-02-21T02:15:49;25.17;;;12.32;;
39792;SDS011;26080;42.264;24.536;2024-02-21T02:18:16;18.70;;;9.73;;
39792;SDS011;26080;42.264;24.536;2024-02-21T02:20:45;20.58;;;10.20;;
39792;SDS011;26080;42.264;24.536;2024-02-21T02:23:25;22.65;;;11.82;;
39792;SDS011;26080;42.264;24.536;2024-02-21T02:25:51;23.50;;;10.98;;
39792;SDS011;26080;42.264;24.536;2024-02-21T02:28:20;22.48;;;10.88;;
39792;SDS011;26080;42.264;24.536;2024-02-21T02:30:46;19.05;;;11.20;;
39792;SDS011;26080;42.264;24.536;2024-02-21T02:33:12;20.52;;;12.10;;
39792;SDS011;26080;42.264;24.536;2024-02-21T02:35:37;25.02;;;12.38;;
39792;SDS011;26080;42.264;24.536;2024-02-21T02:38:03;21.15;;;10.85;;
39792;SDS011;26080;42.264;24.536;2024-02-21T02:40:29;20.45;;;10.93;;
39792;SDS011;26080;42.264;24.536;2024-02-21T02:42:55;18.95;;;10.10;;
39792;SDS011;26080;42.264;24.536;2024-02-21T02:45:21;23.80;;;10.70;;
39792;SDS011;26080;42.264;24.536;2024-02-21T02:47:51;25.00;;;12.52;;
39792;SDS011;26080;42.264;24.536;2024-02-21T02:50:17;16.45;;;8.85;;
39792;SDS011;26080;42.264;24.536;2024-02-21T02:52:42;18.67;;;10.13;;
39792;SDS011;26080;42.264;24.536;2024-02-21T02:55:09;21.10;;;11.23;;
39792;SDS011;26080;42.264;24.536;2024-02-21T02:57:34;18.58;;;10.80;;
39792;SDS011;26080;42.264;24.536;2024-02-21T02:59:59;28.83;;;12.18;;
39792;SDS011;26080;42.264;24.536;2024-02-21T03:02:25;21.42;;;11.73;;
39792;SDS011;26080;42.264;24.536;2024-02-21T03:04:50;22.17;;;10.70;;
39792;SDS011;26080;42.264;24.536;2024-02-21T03:07:16;22.27;;;10.48;;
39792;SDS011;26080;42.264;24.536;2024-02-21T03:09:42;23.23;;;10.63;;
39792;SDS011;26080;42.264;24.536;2024-02-21T03:12:10;24.77;;;11.40;;
39792;SDS011;26080;42.264;24.536;2024-02-21T03:14:37;28.10;;;11.23;;
39792;SDS011;26080;42.264;24.536;2024-02-21T03:17:02;20.55;;;10.77;;
39792;SDS011;26080;42.264;24.536;2024-02-21T03:19:29;20.90;;;9.82;;
39792;SDS011;26080;42.264;24.536;2024-02-21T03:21:55;18.50;;;10.50;;
39792;SDS011;26080;42.264;24.536;2024-02-21T03:24:20;17.75;;;10.95;;
39792;SDS011;26080;42.264;24.536;2024-02-21T03:26:46;15.93;;;9.02;;
39792;SDS011;26080;42.264;24.536;2024-02-21T03:29:13;33.10;;;11.82;;
39792;SDS011;26080;42.264;24.536;2024-02-21T03:31:40;16.33;;;9.60;;
39792;SDS011;26080;42.264;24.536;2024-02-21T03:34:06;20.33;;;10.68;;
39792;SDS011;26080;42.264;24.536;2024-02-21T03:36:31;24.33;;;11.77;;
39792;SDS011;26080;42.264;24.536;2024-02-21T03:38:56;19.88;;;10.60;;
39792;SDS011;26080;42.264;24.536;2024-02-21T03:41:22;20.48;;;10.63;;
39792;SDS011;26080;42.264;24.536;2024-02-21T03:43:48;21.58;;;9.10;;
39792;SDS011;26080;42.264;24.536;2024-02-21T03:46:14;29.80;;;11.55;;
39792;SDS011;26080;42.264;24.536;2024-02-21T03:48:40;21.38;;;11.80;;
39792;SDS011;26080;42.264;24.536;2024-02-21T03:51:05;21.67;;;13.05;;
39792;SDS011;26080;42.264;24.536;2024-02-21T03:53:31;19.33;;;9.48;;
39792;SDS011;26080;42.264;24.536;2024-02-21T03:55:57;19.02;;;9.55;;
39792;SDS011;26080;42.264;24.536;2024-02-21T03:58:27;21.83;;;10.25;;
39792;SDS011;26080;42.264;24.536;2024-02-21T04:00:53;17.63;;;9.32;;
39792;SDS011;26080;42.264;24.536;2024-02-21T04:03:18;20.30;;;9.88;;
39792;SDS011;26080;42.264;24.536;2024-02-21T04:05:44;21.33;;;9.65;;
39792;SDS011;26080;42.264;24.536;2024-02-21T04:08:10;15.55;;;9.15;;
39792;SDS011;26080;42.264;24.536;2024-02-21T04:10:36;17.02;;;8.38;;
39792;SDS011;26080;42.264;24.536;2024-02-21T04:13:02;17.90;;;9.07;;
39792;SDS011;26080;42.264;24.536;2024-02-21T04:15:30;19.15;;;11.65;;
39792;SDS011;26080;42.264;24.536;2024-02-21T04:17:55;33.60;;;13.80;;
39792;SDS011;26080;42.264;24.536;2024-02-21T04:20:21;22.27;;;11.18;;
39792;SDS011;26080;42.264;24.536;2024-02-21T04:22:46;16.38;;;9.35;;
39792;SDS011;26080;42.264;24.536;2024-02-21T04:25:15;11.88;;;6.72;;
39792;SDS011;26080;42.264;24.536;2024-02-21T04:27:42;14.40;;;7.45;;
39792;SDS011;26080;42.264;24.536;2024-02-21T04:30:07;12.32;;;6.47;;
39792;SDS011;26080;42.264;24.536;2024-02-21T04:32:33;14.25;;;7.22;;
39792;SDS011;26080;42.264;24.536;2024-02-21T04:34:58;12.60;;;6.65;;
39792;SDS011;26080;42.264;24.536;2024-02-21T04:37:24;11.43;;;6.05;;
39792;SDS011;26080;42.264;24.536;2024-02-21T04:39:49;10.75;;;5.90;;
39792;SDS011;26080;42.264;24.536;2024-02-21T04:42:15;25.65;;;14.40;;
39792;SDS011;26080;42.264;24.536;2024-02-21T04:44:41;14.55;;;7.45;;
39792;SDS011;26080;42.264;24.536;2024-02-21T04:47:07;10.88;;;6.47;;
39792;SDS011;26080;42.264;24.536;2024-02-21T04:49:32;11.90;;;6.85;;
39792;SDS011;26080;42.264;24.536;2024-02-21T04:51:58;12.40;;;6.03;;
39792;SDS011;26080;42.264;24.536;2024-02-21T04:54:24;17.02;;;9.23;;
39792;SDS011;26080;42.264;24.536;2024-02-21T04:56:49;17.65;;;9.32;;
39792;SDS011;26080;42.264;24.536;2024-02-21T04:59:15;10.25;;;6.85;;
39792;SDS011;26080;42.264;24.536;2024-02-21T05:01:44;10.63;;;6.57;;
39792;SDS011;26080;42.264;24.536;2024-02-21T05:04:09;14.00;;;7.43;;
39792;SDS011;26080;42.264;24.536;2024-02-21T05:06:38;11.65;;;7.00;;
39792;SDS011;26080;42.264;24.536;2024-02-21T05:09:05;9.45;;;5.60;;
39792;SDS011;26080;42.264;24.536;2024-02-21T05:11:31;11.00;;;6.30;;
39792;SDS011;26080;42.264;24.536;2024-02-21T05:13:56;14.77;;;7.30;;
39792;SDS011;26080;42.264;24.536;2024-02-21T05:16:22;15.60;;;7.07;;
39792;SDS011;26080;42.264;24.536;2024-02-21T05:18:48;10.68;;;6.90;;
39792;SDS011;26080;42.264;24.536;2024-02-21T05:21:13;13.57;;;8.50;;
39792;SDS011;26080;42.264;24.536;2024-02-21T05:23:39;15.60;;;9.23;;
39792;SDS011;26080;42.264;24.536;2024-02-21T05:26:05;16.55;;;7.95;;
39792;SDS011;26080;42.264;24.536;2024-02-21T05:28:31;16.02;;;9.48;;
39792;SDS011;26080;42.264;24.536;2024-02-21T05:30:57;15.50;;;9.68;;
39792;SDS011;26080;42.264;24.536;2024-02-21T05:33:22;19.23;;;8.35;;
39792;SDS011;26080;42.264;24.536;2024-02-21T05:35:50;16.63;;;8.15;;
39792;SDS011;26080;42.264;24.536;2024-02-21T05:38:16;18.55;;;8.73;;
39792;SDS011;26080;42.264;24.536;2024-02-21T05:40:42;17.92;;;8.43;;
39792;SDS011;26080;42.264;24.536;2024-02-21T05:43:08;18.80;;;9.23;;
39792;SDS011;26080;42.264;24.536;2024-02-21T05:45:34;22.80;;;9.77;;
39792;SDS011;26080;42.264;24.536;2024-02-21T05:47:59;20.30;;;10.50;;
39792;SDS011;26080;42.264;24.536;2024-02-21T05:50:25;20.67;;;9.15;;
39792;SDS011;26080;42.264;24.536;2024-02-21T05:52:52;16.10;;;8.35;;
39792;SDS011;26080;42.264;24.536;2024-02-21T05:55:18;18.75;;;8.05;;
39792;SDS011;26080;42.264;24.536;2024-02-21T05:57:43;18.05;;;9.20;;
39792;SDS011;26080;42.264;24.536;2024-02-21T06:00:09;18.70;;;7.78;;
39792;SDS011;26080;42.264;24.536;2024-02-21T06:02:35;15.73;;;8.52;;
39792;SDS011;26080;42.264;24.536;2024-02-21T06:05:00;17.08;;;9.70;;
39792;SDS011;26080;42.264;24.536;2024-02-21T06:07:25;15.68;;;9.18;;
39792;SDS011;26080;42.264;24.536;2024-02-21T06:09:51;13.88;;;7.50;;
39792;SDS011;26080;42.264;24.536;2024-02-21T06:12:16;12.85;;;5.90;;
39792;SDS011;26080;42.264;24.536;2024-02-21T06:14:42;19.25;;;9.23;;
39792;SDS011;26080;42.264;24.536;2024-02-21T06:17:07;43.38;;;14.43;;
39792;SDS011;26080;42.264;24.536;2024-02-21T06:19:33;26.40;;;11.85;;
39792;SDS011;26080;42.264;24.536;2024-02-21T06:21:58;27.75;;;11.43;;
39792;SDS011;26080;42.264;24.536;2024-02-21T06:24:24;16.80;;;8.57;;
39792;SDS011;26080;42.264;24.536;2024-02-21T06:26:49;16.75;;;9.07;;
39792;SDS011;26080;42.264;24.536;2024-02-21T06:29:14;21.70;;;9.15;;
39792;SDS011;26080;42.264;24.536;2024-02-21T06:31:40;16.33;;;8.55;;
39792;SDS011;26080;42.264;24.536;2024-02-21T06:34:06;19.13;;;8.50;;
39792;SDS011;26080;42.264;24.536;2024-02-21T06:36:31;20.95;;;9.73;;
39792;SDS011;26080;42.264;24.536;2024-02-21T06:38:56;19.88;;;8.60;;
39792;SDS011;26080;42.264;24.536;2024-02-21T06:41:23;13.50;;;7.72;;
39792;SDS011;26080;42.264;24.536;2024-02-21T06:43:49;16.52;;;8.25;;
39792;SDS011;26080;42.264;24.536;2024-02-21T06:46:24;13.45;;;7.10;;
39792;SDS011;26080;42.264;24.536;2024-02-21T06:48:53;13.95;;;9.52;;
39792;SDS011;26080;42.264;24.536;2024-02-21T06:51:19;16.70;;;8.90;;
39792;SDS011;26080;42.264;24.536;2024-02-21T06:53:44;18.08;;;8.85;;
39792;SDS011;26080;42.264;24.536;2024-02-21T06:56:10;14.80;;;7.53;;
39792;SDS011;26080;42.264;24.536;2024-02-21T06:58:35;15.85;;;8.75;;
39792;SDS011;26080;42.264;24.536;2024-02-21T07:01:01;14.20;;;7.68;;
39792;SDS011;26080;42.264;24.536;2024-02-21T07:03:27;23.05;;;10.45;;
39792;SDS011;26080;42.264;24.536;2024-02-21T07:05:52;20.73;;;7.85;;
39792;SDS011;26080;42.264;24.536;2024-02-21T07:08:17;15.90;;;8.10;;
39792;SDS011;26080;42.264;24.536;2024-02-21T07:10:43;19.30;;;10.60;;
39792;SDS011;26080;42.264;24.536;2024-02-21T07:13:08;18.58;;;8.82;;
39792;SDS011;26080;42.264;24.536;2024-02-21T07:15:34;21.77;;;11.10;;
39792;SDS011;26080;42.264;24.536;2024-02-21T07:18:01;24.05;;;10.23;;
39792;SDS011;26080;42.264;24.536;2024-02-21T07:20:26;21.92;;;10.13;;
39792;SDS011;26080;42.264;24.536;2024-02-21T07:22:52;24.25;;;12.05;;
39792;SDS011;26080;42.264;24.536;2024-02-21T07:25:17;28.30;;;12.40;;
39792;SDS011;26080;42.264;24.536;2024-02-21T07:27:43;22.92;;;11.50;;
39792;SDS011;26080;42.264;24.536;2024-02-21T07:30:09;21.98;;;10.90;;
39792;SDS011;26080;42.264;24.536;2024-02-21T07:32:35;28.33;;;14.43;;
39792;SDS011;26080;42.264;24.536;2024-02-21T07:35:00;99.15;;;41.33;;
39792;SDS011;26080;42.264;24.536;2024-02-21T07:37:26;46.65;;;21.75;;
39792;SDS011;26080;42.264;24.536;2024-02-21T07:39:52;39.17;;;16.30;;
39792;SDS011;26080;42.264;24.536;2024-02-21T07:42:17;18.17;;;9.13;;
39792;SDS011;26080;42.264;24.536;2024-02-21T07:44:42;22.20;;;10.77;;
39792;SDS011;26080;42.264;24.536;2024-02-21T07:47:08;25.23;;;12.23;;
39792;SDS011;26080;42.264;24.536;2024-02-21T07:49:40;23.65;;;10.65;;
39792;SDS011;26080;42.264;24.536;2024-02-21T07:52:06;30.05;;;12.88;;
39792;SDS011;26080;42.264;24.536;2024-02-21T07:54:32;22.65;;;11.40;;
39792;SDS011;26080;42.264;24.536;2024-02-21T07:56:58;21.00;;;8.55;;
39792;SDS011;26080;42.264;24.536;2024-02-21T07:59:23;23.25;;;12.30;;
39792;SDS011;26080;42.264;24.536;2024-02-21T08:01:49;23.35;;;10.00;;
39792;SDS011;26080;42.264;24.536;2024-02-21T08:04:14;67.60;;;35.80;;
39792;SDS011;26080;42.264;24.536;2024-02-21T08:06:39;16.42;;;9.70;;
39792;SDS011;26080;42.264;24.536;2024-02-21T08:09:05;19.50;;;9.13;;
39792;SDS011;26080;42.264;24.536;2024-02-21T08:11:30;22.33;;;9.00;;
39792;SDS011;26080;42.264;24.536;2024-02-21T08:13:56;41.83;;;14.45;;
39792;SDS011;26080;42.264;24.536;2024-02-21T08:16:22;19.42;;;10.07;;
39792;SDS011;26080;42.264;24.536;2024-02-21T08:18:47;15.27;;;6.63;;
39792;SDS011;26080;42.264;24.536;2024-02-21T08:21:13;14.68;;;7.38;;
39792;SDS011;26080;42.264;24.536;2024-02-21T08:23:38;19.90;;;7.38;;
39792;SDS011;26080;42.264;24.536;2024-02-21T08:26:03;10.43;;;5.05;;
39792;SDS011;26080;42.264;24.536;2024-02-21T08:28:29;14.25;;;6.05;;
39792;SDS011;26080;42.264;24.536;2024-02-21T08:30:55;9.43;;;5.95;;
39792;SDS011;26080;42.264;24.536;2024-02-21T08:33:20;12.57;;;6.82;;
39792;SDS011;26080;42.264;24.536;2024-02-21T08:35:50;26.80;;;10.18;;
39792;SDS011;26080;42.264;24.536;2024-02-21T08:38:16;6.50;;;4.32;;
39792;SDS011;26080;42.264;24.536;2024-02-21T08:40:41;10.55;;;5.35;;
39792;SDS011;26080;42.264;24.536;2024-02-21T08:43:07;12.70;;;4.88;;
39792;SDS011;26080;42.264;24.536;2024-02-21T08:45:32;6.00;;;2.80;;
39792;SDS011;26080;42.264;24.536;2024-02-21T08:47:57;38.40;;;12.55;;
39792;SDS011;26080;42.264;24.536;2024-02-21T08:50:23;13.55;;;6.18;;
39792;SDS011;26080;42.264;24.536;2024-02-21T08:52:48;6.45;;;3.13;;
39792;SDS011;26080;42.264;24.536;2024-02-21T08:55:14;5.53;;;2.50;;
39792;SDS011;26080;42.264;24.536;2024-02-21T08:57:39;16.35;;;6.18;;
39792;SDS011;26080;42.264;24.536;2024-02-21T09:00:05;8.25;;;4.07;;
39792;SDS011;26080;42.264;24.536;2024-02-21T09:02:34;5.53;;;3.05;;
39792;SDS011;26080;42.264;24.536;2024-02-21T09:05:08;6.45;;;3.45;;
39792;SDS011;26080;42.264;24.536;2024-02-21T09:07:33;5.50;;;2.97;;
39792;SDS011;26080;42.264;24.536;2024-02-21T09:09:59;17.55;;;6.55;;
39792;SDS011;26080;42.264;24.536;2024-02-21T09:12:24;11.40;;;4.85;;
39792;SDS011;26080;42.264;24.536;2024-02-21T09:14:50;9.80;;;3.63;;
39792;SDS011;26080;42.264;24.536;2024-02-21T09:17:16;13.15;;;4.32;;
39792;SDS011;26080;42.264;24.536;2024-02-21T09:19:46;9.80;;;3.70;;
39792;SDS011;26080;42.264;24.536;2024-02-21T09:22:12;12.90;;;5.70;;
39792;SDS011;26080;42.264;24.536;2024-02-21T09:24:38;7.18;;;3.63;;
39792;SDS011;26080;42.264;24.536;2024-02-21T09:27:03;7.30;;;3.65;;
39792;SDS011;26080;42.264;24.536;2024-02-21T09:29:30;7.25;;;3.65;;
39792;SDS011;26080;42.264;24.536;2024-02-21T09:31:58;4.25;;;1.85;;
39792;SDS011;26080;42.264;24.536;2024-02-21T09:34:24;24.05;;;7.32;;
39792;SDS011;26080;42.264;24.536;2024-02-21T09:36:49;9.77;;;4.00;;
39792;SDS011;26080;42.264;24.536;2024-02-21T09:39:14;10.27;;;3.83;;
39792;SDS011;26080;42.264;24.536;2024-02-21T09:41:45;8.73;;;3.72;;
39792;SDS011;26080;42.264;24.536;2024-02-21T09:44:13;5.72;;;2.75;;
39792;SDS011;26080;42.264;24.536;2024-02-21T09:49:30;12.10;;;5.25;;
39792;SDS011;26080;42.264;24.536;2024-02-21T09:52:03;6.50;;;1.95;;
39792;SDS011;26080;42.264;24.536;2024-02-21T09:54:30;10.50;;;4.10;;
39792;SDS011;26080;42.264;24.536;2024-02-21T09:56:56;5.18;;;3.53;;
39792;SDS011;26080;42.264;24.536;2024-02-21T09:59:22;10.05;;;3.50;;
39792;SDS011;26080;42.264;24.536;2024-02-21T10:01:49;7.00;;;2.90;;
39792;SDS011;26080;42.264;24.536;2024-02-21T10:04:16;4.55;;;2.00;;
39792;SDS011;26080;42.264;24.536;2024-02-21T10:06:41;2.72;;;1.90;;
39792;SDS011;26080;42.264;24.536;2024-02-21T10:09:07;4.15;;;1.98;;
39792;SDS011;26080;42.264;24.536;2024-02-21T10:11:32;3.75;;;2.25;;
39792;SDS011;26080;42.264;24.536;2024-02-21T10:14:04;5.15;;;2.97;;
39792;SDS011;26080;42.264;24.536;2024-02-21T10:16:31;4.57;;;2.22;;
39792;SDS011;26080;42.264;24.536;2024-02-21T10:18:57;6.07;;;3.03;;
39792;SDS011;26080;42.264;24.536;2024-02-21T10:21:22;5.10;;;2.85;;
39792;SDS011;26080;42.264;24.536;2024-02-21T10:23:51;3.33;;;1.85;;
39792;SDS011;26080;42.264;24.536;2024-02-21T10:26:17;4.93;;;2.15;;
39792;SDS011;26080;42.264;24.536;2024-02-21T10:28:44;2.70;;;1.50;;
39792;SDS011;26080;42.264;24.536;2024-02-21T10:31:20;5.80;;;1.95;;
39792;SDS011;26080;42.264;24.536;2024-02-21T10:33:53;6.45;;;1.70;;
39792;SDS011;26080;42.264;24.536;2024-02-21T10:36:31;3.38;;;1.50;;
39792;SDS011;26080;42.264;24.536;2024-02-21T10:39:05;5.13;;;2.35;;
39792;SDS011;26080;42.264;24.536;2024-02-21T10:41:31;5.22;;;2.03;;
39792;SDS011;26080;42.264;24.536;2024-02-21T10:43:57;5.00;;;2.38;;
39792;SDS011;26080;42.264;24.536;2024-02-21T10:46:23;10.38;;;4.82;;
39792;SDS011;26080;42.264;24.536;2024-02-21T10:49:07;4.57;;;1.85;;
39792;SDS011;26080;42.264;24.536;2024-02-21T10:51:36;3.28;;;1.38;;
39792;SDS011;26080;42.264;24.536;2024-02-21T10:56:49;3.80;;;2.17;;
39792;SDS011;26080;42.264;24.536;2024-02-21T10:59:16;3.13;;;1.65;;
39792;SDS011;26080;42.264;24.536;2024-02-21T11:01:43;3.42;;;1.63;;
39792;SDS011;26080;42.264;24.536;2024-02-21T11:04:08;3.63;;;1.65;;
39792;SDS011;26080;42.264;24.536;2024-02-21T11:06:37;4.53;;;2.42;;
39792;SDS011;26080;42.264;24.536;2024-02-21T11:09:05;3.95;;;2.05;;
39792;SDS011;26080;42.264;24.536;2024-02-21T11:11:34;2.95;;;1.77;;
39792;SDS011;26080;42.264;24.536;2024-02-21T11:14:10;4.50;;;2.40;;
39792;SDS011;26080;42.264;24.536;2024-02-21T11:16:46;5.28;;;2.38;;
39792;SDS011;26080;42.264;24.536;2024-02-21T11:19:22;5.00;;;2.63;;
39792;SDS011;26080;42.264;24.536;2024-02-21T11:21:52;2.45;;;1.50;;
39792;SDS011;26080;42.264;24.536;2024-02-21T11:29:46;6.82;;;2.35;;
39792;SDS011;26080;42.264;24.536;2024-02-21T11:32:17;3.10;;;1.10;;
39792;SDS011;26080;42.264;24.536;2024-02-21T11:37:29;4.32;;;1.85;;
39792;SDS011;26080;42.264;24.536;2024-02-21T11:39:58;3.70;;;1.50;;
39792;SDS011;26080;42.264;24.536;2024-02-21T11:42:25;3.67;;;1.38;;
39792;SDS011;26080;42.264;24.536;2024-02-21T11:44:52;2.67;;;1.35;;
39792;SDS011;26080;42.264;24.536;2024-02-21T11:47:18;2.20;;;1.15;;
39792;SDS011;26080;42.264;24.536;2024-02-21T11:49:47;2.33;;;1.25;;
39792;SDS011;26080;42.264;24.536;2024-02-21T11:52:15;3.97;;;1.67;;
39792;SDS011;26080;42.264;24.536;2024-02-21T11:54:41;2.70;;;1.55;;
39792;SDS011;26080;42.264;24.536;2024-02-21T11:57:07;3.10;;;1.52;;
39792;SDS011;26080;42.264;24.536;2024-02-21T11:59:33;6.03;;;1.40;;
39792;SDS011;26080;42.264;24.536;2024-02-21T12:02:00;1.95;;;1.08;;
39792;SDS011;26080;42.264;24.536;2024-02-21T12:04:26;6.00;;;2.40;;
39792;SDS011;26080;42.264;24.536;2024-02-21T12:06:52;15.98;;;1.52;;
39792;SDS011;26080;42.264;24.536;2024-02-21T12:09:19;7.18;;;1.83;;
39792;SDS011;26080;42.264;24.536;2024-02-21T12:11:45;4.25;;;1.42;;
39792;SDS011;26080;42.264;24.536;2024-02-21T12:14:15;2.28;;;1.45;;
39792;SDS011;26080;42.264;24.536;2024-02-21T12:16:41;2.97;;;0.95;;
39792;SDS011;26080;42.264;24.536;2024-02-21T12:19:07;1.60;;;0.85;;
39792;SDS011;26080;42.264;24.536;2024-02-21T12:21:34;3.03;;;1.38;;
39792;SDS011;26080;42.264;24.536;2024-02-21T12:24:22;2.65;;;1.20;;
39792;SDS011;26080;42.264;24.536;2024-02-21T12:26:52;3.50;;;1.67;;
39792;SDS011;26080;42.264;24.536;2024-02-21T12:29:19;1.10;;;0.65;;
39792;SDS011;26080;42.264;24.536;2024-02-21T12:31:45;3.67;;;1.38;;
39792;SDS011;26080;42.264;24.536;2024-02-21T12:34:10;2.53;;;1.20;;
39792;SDS011;26080;42.264;24.536;2024-02-21T12:36:40;1.77;;;0.98;;
39792;SDS011;26080;42.264;24.536;2024-02-21T12:39:07;0.98;;;0.45;;
39792;SDS011;26080;42.264;24.536;2024-02-21T12:41:33;1.27;;;0.65;;
39792;SDS011;26080;42.264;24.536;2024-02-21T12:44:00;1.35;;;0.90;;
39792;SDS011;26080;42.264;24.536;2024-02-21T12:46:26;6.72;;;2.38;;
39792;SDS011;26080;42.264;24.536;2024-02-21T12:48:51;2.08;;;0.80;;
39792;SDS011;26080;42.264;24.536;2024-02-21T12:51:16;1.80;;;0.63;;
39792;SDS011;26080;42.264;24.536;2024-02-21T12:53:46;6.13;;;2.50;;
39792;SDS011;26080;42.264;24.536;2024-02-21T12:56:15;4.40;;;1.83;;
39792;SDS011;26080;42.264;24.536;2024-02-21T12:58:40;3.38;;;1.17;;
39792;SDS011;26080;42.264;24.536;2024-02-21T13:01:06;1.63;;;0.80;;
39792;SDS011;26080;42.264;24.536;2024-02-21T13:03:31;1.85;;;1.10;;
39792;SDS011;26080;42.264;24.536;2024-02-21T13:05:57;1.67;;;0.60;;
39792;SDS011;26080;42.264;24.536;2024-02-21T13:08:24;1.60;;;0.80;;
39792;SDS011;26080;42.264;24.536;2024-02-21T13:10:49;1.40;;;0.57;;
39792;SDS011;26080;42.264;24.536;2024-02-21T13:13:15;4.53;;;1.88;;
39792;SDS011;26080;42.264;24.536;2024-02-21T13:15:40;2.85;;;1.73;;
39792;SDS011;26080;42.264;24.536;2024-02-21T13:18:08;4.93;;;2.10;;
39792;SDS011;26080;42.264;24.536;2024-02-21T13:20:33;3.72;;;2.33;;
39792;SDS011;26080;42.264;24.536;2024-02-21T13:22:59;2.00;;;1.05;;
39792;SDS011;26080;42.264;24.536;2024-02-21T13:25:24;1.95;;;1.40;;
39792;SDS011;26080;42.264;24.536;2024-02-21T13:27:50;4.72;;;1.67;;
39792;SDS011;26080;42.264;24.536;2024-02-21T13:30:16;2.38;;;1.20;;
39792;SDS011;26080;42.264;24.536;2024-02-21T13:32:42;11.18;;;2.08;;
39792;SDS011;26080;42.264;24.536;2024-02-21T13:35:08;4.72;;;2.45;;
39792;SDS011;26080;42.264;24.536;2024-02-21T13:37:34;2.92;;;1.42;;
39792;SDS011;26080;42.264;24.536;2024-02-21T13:40:00;3.88;;;1.83;;
39792;SDS011;26080;42.264;24.536;2024-02-21T13:42:25;2.25;;;1.55;;
39792;SDS011;26080;42.264;24.536;2024-02-21T13:44:53;3.90;;;2.08;;
39792;SDS011;26080;42.264;24.536;2024-02-21T13:47:18;4.80;;;2.10;;
39792;SDS011;26080;42.264;24.536;2024-02-21T13:49:43;3.00;;;1.73;;
39792;SDS011;26080;42.264;24.536;2024-02-21T13:52:09;4.53;;;1.65;;
39792;SDS011;26080;42.264;24.536;2024-02-21T13:54:35;1.90;;;1.10;;
39792;SDS011;26080;42.264;24.536;2024-02-21T13:57:00;3.28;;;1.70;;
39792;SDS011;26080;42.264;24.536;2024-02-21T13:59:27;14.77;;;1.48;;
39792;SDS011;26080;42.264;24.536;2024-02-21T14:01:53;4.43;;;2.33;;
39792;SDS011;26080;42.264;24.536;2024-02-21T14:04:18;2.72;;;1.90;;
39792;SDS011;26080;42.264;24.536;2024-02-21T14:06:43;5.28;;;2.22;;
39792;SDS011;26080;42.264;24.536;2024-02-21T14:09:09;2.35;;;1.23;;
39792;SDS011;26080;42.264;24.536;2024-02-21T14:11:35;3.50;;;1.42;;
39792;SDS011;26080;42.264;24.536;2024-02-21T14:14:00;1.73;;;1.17;;
39792;SDS011;26080;42.264;24.536;2024-02-21T14:16:26;3.25;;;1.40;;
39792;SDS011;26080;42.264;24.536;2024-02-21T14:18:52;2.78;;;1.23;;
39792;SDS011;26080;42.264;24.536;2024-02-21T14:21:19;3.35;;;1.70;;
39792;SDS011;26080;42.264;24.536;2024-02-21T14:23:44;2.25;;;0.90;;
39792;SDS011;26080;42.264;24.536;2024-02-21T14:26:10;3.00;;;1.40;;
39792;SDS011;26080;42.264;24.536;2024-02-21T14:28:35;4.07;;;1.60;;
39792;SDS011;26080;42.264;24.536;2024-02-21T14:31:01;2.28;;;1.15;;